Time;durP1;ratioP1;P1;durP2;ratioP2;P2;SDS_P1;SDS_P2;PMS_P1;PMS_P2;Temp;Humidity;BMP_temperature;BMP_pressure;BME280_temperature;BME280_humidity;BME280_pressure;Samples;Min_cycle;Max_cycle;Signal;HPM_P1;HPM_P2
2023/12/15 00:02:35;;;;;;;;;;;;;;;7.89;71.27;100702.63;5452809;32;34543;-79
2023/12/15 00:05:38;;;;;;;;;;;;;;;7.64;72.36;100709.28;5462963;32;34278;-80
2023/12/15 00:08:41;;;;;;;;;;;;;;;7.63;73.20;100707.56;5467628;32;34811;-79
2023/12/15 00:11:43;;;;;;;;;;;;;;;7.43;74.50;100715.84;5463568;32;34250;-78
2023/12/15 00:14:50;;;;;;;;;;;;;;;8.04;72.48;100720.56;5465682;32;34614;-79
2023/12/15 00:17:55;;;;;;;;;;;;;;;7.63;73.12;100724.13;5453632;32;33300;-79
2023/12/15 00:20:57;;;;;;;;;;;;;;;7.15;76.06;100731.22;5463387;32;33107;-79
2023/12/15 00:24:02;;;;;;;;;;;;;;;7.11;75.77;100729.56;5468508;32;34334;-79
2023/12/15 00:27:04;;;;;;;;;;;;;;;6.99;76.22;100734.12;5463270;32;34707;-78
2023/12/15 00:30:06;;;;;;;;;;;;;;;7.12;76.36;100741.75;5467030;32;34522;-77
2023/12/15 00:33:09;;;;;;;;;;;;;;;7.43;75.36;100742.84;5434589;32;34967;-78
2023/12/15 00:36:11;;;;;;;;;;;;;;;7.04;77.17;100747.12;5449398;32;34925;-78
2023/12/15 00:39:13;;;;;;;;;;;;;;;7.34;76.75;100748.25;5468641;32;36017;-81
2023/12/15 00:42:15;;;;;;;;;;;;;;;6.94;77.41;100748.16;5463946;32;34346;-78
2023/12/15 00:45:17;;;;;;;;;;;;;;;7.10;76.89;100754.00;5454282;32;34288;-79
2023/12/15 00:48:19;;;;;;;;;;;;;;;7.47;76.22;100755.00;5463028;32;34663;-79
2023/12/15 00:51:22;;;;;;;;;;;;;;;7.13;77.18;100761.75;5473604;32;34717;-77
2023/12/15 00:54:24;;;;;;;;;;;;;;;7.24;76.40;100768.50;5466110;32;34808;-79
2023/12/15 00:57:26;;;;;;;;;;;;;;;6.52;78.37;100771.56;5464633;32;34365;-77
2023/12/15 01:00:28;;;;;;;;;;;;;;;6.67;79.21;100779.13;5468826;32;35361;-79
2023/12/15 01:03:30;;;;;;;;;;;;;;;6.44;81.37;100789.97;5450641;32;35049;-78
2023/12/15 01:06:33;;;;;;;;;;;;;;;7.06;78.18;100788.00;5469033;32;34222;-78
2023/12/15 01:09:36;;;;;;;;;;;;;;;7.29;77.64;100787.59;5463949;32;34259;-78
2023/12/15 01:12:38;;;;;;;;;;;;;;;6.34;80.57;100798.81;5468439;32;34844;-79
2023/12/15 01:15:40;;;;;;;;;;;;;;;7.36;76.90;100796.19;5451278;32;35537;-77
2023/12/15 01:18:42;;;;;;;;;;;;;;;6.71;78.44;100799.09;5465803;32;35003;-78
2023/12/15 01:21:44;;;;;;;;;;;;;;;6.98;79.26;100805.59;5468571;32;35241;-78
2023/12/15 01:24:47;;;;;;;;;;;;;;;6.95;77.78;100805.63;5446197;32;35716;-80
2023/12/15 01:27:49;;;;;;;;;;;;;;;7.21;75.88;100804.28;5468438;32;34834;-80
2023/12/15 01:30:51;;;;;;;;;;;;;;;7.75;74.50;100801.50;5464089;32;34826;-79
2023/12/15 01:33:54;;;;;;;;;;;;;;;8.06;72.32;100797.34;5471446;32;34492;-78
2023/12/15 01:36:56;;;;;;;;;;;;;;;7.37;73.96;100800.50;5451082;32;34804;-79
2023/12/15 01:39:58;;;;;;;;;;;;;;;7.86;74.08;100807.38;5464452;32;34363;-78
2023/12/15 01:43:00;;;;;;;;;;;;;;;8.45;70.81;100809.59;5468656;32;35455;-79
2023/12/15 01:46:03;;;;;;;;;;;;;;;7.61;72.47;100820.09;5449124;32;34741;-78
2023/12/15 01:49:15;;;;;;;;;;;;;;;8.45;70.20;100830.53;5466648;32;34159;-78
2023/12/15 01:52:17;;;;;;;;;;;;;;;8.66;69.00;100825.62;5463331;32;34374;-78
2023/12/15 01:55:20;;;;;;;;;;;;;;;8.49;68.53;100833.03;5438720;32;35625;-78
2023/12/15 01:58:22;;;;;;;;;;;;;;;7.72;72.28;100819.87;5467487;32;35802;-78
2023/12/15 02:01:24;;;;;;;;;;;;;;;7.42;72.66;100835.28;5464286;32;34956;-79
2023/12/15 02:04:27;;;;;;;;;;;;;;;7.56;74.26;100841.09;5456428;32;34363;-77
2023/12/15 02:07:29;;;;;;;;;;;;;;;7.14;74.14;100840.13;5436623;32;35493;-79
2023/12/15 02:10:35;;;;;;;;;;;;;;;7.01;75.61;100836.87;5467973;32;34357;-79
2023/12/15 02:13:37;;;;;;;;;;;;;;;6.42;77.69;100849.16;5448704;32;34389;-79
2023/12/15 02:16:40;;;;;;;;;;;;;;;6.47;78.89;100849.09;5463734;32;35537;-78
2023/12/15 02:19:42;;;;;;;;;;;;;;;6.68;78.03;100846.13;5471879;32;34292;-79
2023/12/15 02:22:44;;;;;;;;;;;;;;;6.25;79.70;100853.78;5464468;32;34263;-78
2023/12/15 02:25:46;;;;;;;;;;;;;;;6.37;79.64;100848.34;5468966;32;35727;-80
2023/12/15 02:28:48;;;;;;;;;;;;;;;6.45;78.90;100843.03;5450148;32;34841;-77
2023/12/15 02:31:50;;;;;;;;;;;;;;;6.46;78.90;100850.84;5468587;32;35490;-79
2023/12/15 02:34:53;;;;;;;;;;;;;;;6.46;79.21;100853.47;5466118;32;35089;-78
2023/12/15 02:37:55;;;;;;;;;;;;;;;6.45;78.72;100854.34;5450258;32;34758;-79
2023/12/15 02:40:57;;;;;;;;;;;;;;;6.56;79.10;100856.78;5468094;32;35981;-78
2023/12/15 02:43:59;;;;;;;;;;;;;;;7.07;76.30;100865.53;5464801;32;35192;-76
2023/12/15 02:47:02;;;;;;;;;;;;;;;7.02;75.60;100862.16;5466546;32;35303;-79
2023/12/15 02:50:04;;;;;;;;;;;;;;;7.43;74.45;100862.28;5462061;32;35023;-78
2023/12/15 02:53:06;;;;;;;;;;;;;;;6.69;76.96;100862.66;5454113;32;35537;-79
2023/12/15 02:56:09;;;;;;;;;;;;;;;6.70;76.96;100867.03;5464559;32;35233;-78
2023/12/15 02:59:11;;;;;;;;;;;;;;;7.55;73.08;100855.09;5466056;32;33968;-78
2023/12/15 03:02:13;;;;;;;;;;;;;;;7.14;75.25;100868.91;5453681;32;34896;-78
2023/12/15 03:05:15;;;;;;;;;;;;;;;7.07;73.68;100865.53;5450648;32;35091;-78
2023/12/15 03:08:17;;;;;;;;;;;;;;;7.60;72.74;100863.72;5467741;32;35086;-78
2023/12/15 03:11:20;;;;;;;;;;;;;;;6.94;75.54;100881.44;5461210;32;34409;-79
2023/12/15 03:14:22;;;;;;;;;;;;;;;6.82;74.64;100876.41;5441765;32;35486;-79
2023/12/15 03:17:24;;;;;;;;;;;;;;;7.39;72.82;100877.16;5463908;32;33902;-77
2023/12/15 03:20:26;;;;;;;;;;;;;;;7.37;72.06;100884.19;5462225;32;34559;-77
2023/12/15 03:23:28;;;;;;;;;;;;;;;7.32;72.82;100897.34;5467565;32;34751;-81
2023/12/15 03:26:31;;;;;;;;;;;;;;;7.38;71.61;100898.13;5464490;32;35079;-79
2023/12/15 03:29:33;;;;;;;;;;;;;;;8.04;68.56;100902.94;5469231;32;35442;-79
2023/12/15 03:32:35;;;;;;;;;;;;;;;7.13;71.14;100908.13;5465086;32;34388;-78
2023/12/15 03:35:38;;;;;;;;;;;;;;;7.21;70.24;100907.16;5456022;32;34958;-78
2023/12/15 03:38:40;;;;;;;;;;;;;;;7.20;70.94;100913.22;5456418;32;33239;-77
2023/12/15 03:41:42;;;;;;;;;;;;;;;7.37;71.42;100904.25;5451030;32;35186;-80
2023/12/15 03:44:44;;;;;;;;;;;;;;;7.60;70.80;100907.31;5452904;32;34913;-79
2023/12/15 03:47:46;;;;;;;;;;;;;;;6.91;72.82;100920.69;5464100;32;35746;-78
2023/12/15 03:50:49;;;;;;;;;;;;;;;7.42;70.92;100911.13;5450923;32;34700;-79
2023/12/15 03:53:51;;;;;;;;;;;;;;;6.49;74.49;100913.44;5463941;32;34218;-80
2023/12/15 03:56:54;;;;;;;;;;;;;;;6.97;73.28;100925.84;5466728;32;34956;-78
2023/12/15 03:59:56;;;;;;;;;;;;;;;7.15;71.72;100924.66;5465235;32;34682;-77
2023/12/15 04:02:58;;;;;;;;;;;;;;;6.93;73.54;100922.38;5464252;32;35339;-79
2023/12/15 04:06:01;;;;;;;;;;;;;;;6.97;72.83;100931.91;5469438;32;35053;-79
2023/12/15 04:09:04;;;;;;;;;;;;;;;7.01;73.01;100930.97;5466099;32;34638;-79
2023/12/15 04:12:06;;;;;;;;;;;;;;;7.63;70.64;100932.56;5452869;32;34579;-79
2023/12/15 04:15:09;;;;;;;;;;;;;;;7.75;69.16;100942.78;5464615;32;35134;-78
2023/12/15 04:18:11;;;;;;;;;;;;;;;8.01;68.91;100944.91;5439331;32;35316;-79
2023/12/15 04:21:13;;;;;;;;;;;;;;;8.53;66.86;100949.09;5462927;32;35364;-78
2023/12/15 04:24:16;;;;;;;;;;;;;;;8.80;66.03;100945.87;5464990;32;34214;-79
2023/12/15 04:27:18;;;;;;;;;;;;;;;9.05;65.17;100953.16;5467010;32;35722;-79
2023/12/15 04:30:20;;;;;;;;;;;;;;;9.23;64.59;100944.84;5448630;32;34669;-79
2023/12/15 04:33:23;;;;;;;;;;;;;;;8.01;67.35;100955.37;5467328;32;34630;-78
2023/12/15 04:36:26;;;;;;;;;;;;;;;7.56;68.82;100966.66;5435685;32;35193;-79
2023/12/15 04:39:29;;;;;;;;;;;;;;;9.21;64.24;100968.50;5469519;32;36093;-79
2023/12/15 04:42:31;;;;;;;;;;;;;;;9.02;64.56;100966.34;5464301;32;34851;-77
2023/12/15 04:45:33;;;;;;;;;;;;;;;9.34;63.20;100970.78;5462036;32;34929;-79
2023/12/15 04:48:35;;;;;;;;;;;;;;;9.31;63.52;100981.38;5462054;32;36763;-79
2023/12/15 04:51:37;;;;;;;;;;;;;;;9.68;62.10;100979.56;5447775;32;34389;-80
2023/12/15 04:54:39;;;;;;;;;;;;;;;9.66;62.14;100997.13;5467211;32;34593;-80
2023/12/15 04:57:42;;;;;;;;;;;;;;;9.69;61.87;101002.28;5463569;32;34722;-80
2023/12/15 05:00:46;;;;;;;;;;;;;;;9.67;61.60;101008.47;5450913;32;35493;-78
2023/12/15 05:03:49;;;;;;;;;;;;;;;9.85;60.82;101015.00;5468455;32;34656;-78
2023/12/15 05:06:51;;;;;;;;;;;;;;;9.53;61.81;101024.53;5464346;32;34975;-78
2023/12/15 05:09:54;;;;;;;;;;;;;;;9.93;60.53;101028.81;5470541;32;35562;-79
2023/12/15 05:12:57;;;;;;;;;;;;;;;8.41;64.32;101034.03;5464970;32;35076;-78
2023/12/15 05:15:59;;;;;;;;;;;;;;;8.86;63.09;101032.22;5455151;32;34701;-79
2023/12/15 05:19:01;;;;;;;;;;;;;;;7.44;68.15;101045.34;5466383;32;35302;-80
2023/12/15 05:22:03;;;;;;;;;;;;;;;8.32;66.31;101044.69;5464428;32;35229;-80
2023/12/15 05:25:06;;;;;;;;;;;;;;;8.60;65.54;101045.88;5448642;32;34818;-78
2023/12/15 05:28:08;;;;;;;;;;;;;;;8.00;66.46;101064.47;5460977;32;36117;-80
2023/12/15 05:31:10;;;;;;;;;;;;;;;9.08;63.36;101056.22;5463448;32;33389;-79
2023/12/15 05:34:12;;;;;;;;;;;;;;;7.61;67.92;101066.00;5465150;32;34465;-78
2023/12/15 05:37:15;;;;;;;;;;;;;;;8.55;65.07;101079.16;5467818;32;34578;-79
2023/12/15 05:40:17;;;;;;;;;;;;;;;8.90;62.86;101074.97;5464172;32;34706;-78
2023/12/15 05:43:19;;;;;;;;;;;;;;;8.43;64.62;101083.78;5451878;32;34235;-80
2023/12/15 05:46:21;;;;;;;;;;;;;;;8.35;64.83;101094.37;5452336;32;35095;-79
2023/12/15 05:49:24;;;;;;;;;;;;;;;8.34;64.77;101100.50;5458537;32;35704;-78
2023/12/15 05:52:26;;;;;;;;;;;;;;;8.51;64.90;101097.63;5451260;32;34885;-78
2023/12/15 05:55:28;;;;;;;;;;;;;;;7.91;65.48;101106.50;5461975;32;34784;-78
2023/12/15 05:58:30;;;;;;;;;;;;;;;8.28;64.84;101108.47;5468865;32;34611;-78
2023/12/15 06:01:33;;;;;;;;;;;;;;;7.40;68.22;101114.25;5463579;32;34463;-78
2023/12/15 06:04:35;;;;;;;;;;;;;;;8.02;65.80;101127.25;5464879;32;34756;-78
2023/12/15 06:07:37;;;;;;;;;;;;;;;7.88;66.47;101132.72;5466852;32;34211;-78
2023/12/15 06:10:41;;;;;;;;;;;;;;;6.93;70.09;101141.03;5448875;32;36883;-79
2023/12/15 06:13:43;;;;;;;;;;;;;;;7.43;68.46;101140.38;5454440;32;34781;-79
2023/12/15 06:16:45;;;;;;;;;;;;;;;6.94;70.72;101142.78;5437424;32;34850;-79
2023/12/15 06:19:47;;;;;;;;;;;;;;;6.92;70.42;101149.78;5468422;32;35246;-77
2023/12/15 06:22:51;;;;;;;;;;;;;;;6.45;73.81;101166.84;5463456;32;33382;-78
2023/12/15 06:25:56;;;;;;;;;;;;;;;7.00;71.06;101155.75;5464690;32;35081;-78
2023/12/15 06:28:58;;;;;;;;;;;;;;;6.62;71.39;101169.25;5471134;32;35364;-78
2023/12/15 06:32:00;;;;;;;;;;;;;;;6.66;70.95;101182.28;5464299;32;34836;-79
2023/12/15 06:35:02;;;;;;;;;;;;;;;6.69;71.91;101186.59;5453870;32;34856;-80
2023/12/15 06:38:04;;;;;;;;;;;;;;;7.27;71.12;101181.56;5450314;32;34421;-78
2023/12/15 06:41:06;;;;;;;;;;;;;;;6.54;71.03;101192.00;5454517;32;33600;-78
2023/12/15 06:44:08;;;;;;;;;;;;;;;6.19;73.64;101199.25;5465278;32;35004;-79
2023/12/15 06:47:10;;;;;;;;;;;;;;;6.61;72.63;101196.25;5461347;32;35635;-80
2023/12/15 06:50:12;;;;;;;;;;;;;;;6.50;72.98;101204.19;5466831;32;34134;-79
2023/12/15 06:53:15;;;;;;;;;;;;;;;6.82;71.14;101210.84;5468190;32;34171;-79
2023/12/15 06:56:17;;;;;;;;;;;;;;;7.09;70.57;101215.78;5456633;32;34626;-79
2023/12/15 06:59:19;;;;;;;;;;;;;;;6.61;71.85;101225.00;5471752;32;35487;-78
2023/12/15 07:02:21;;;;;;;;;;;;;;;6.93;71.65;101238.59;5472740;32;34511;-78
2023/12/15 07:05:24;;;;;;;;;;;;;;;7.04;70.31;101246.34;5469528;32;33915;-78
2023/12/15 07:08:26;;;;;;;;;;;;;;;7.16;68.75;101243.59;5470469;32;34765;-78
2023/12/15 07:11:28;;;;;;;;;;;;;;;6.88;70.42;101261.31;5472871;32;34284;-77
2023/12/15 07:14:30;;;;;;;;;;;;;;;7.09;69.78;101275.06;5456996;32;35302;-78
2023/12/15 07:17:32;;;;;;;;;;;;;;;7.82;67.45;101274.16;5459986;32;35321;-79
2023/12/15 07:20:34;;;;;;;;;;;;;;;7.52;67.77;101273.66;5470014;32;34588;-78
2023/12/15 07:23:36;;;;;;;;;;;;;;;7.40;68.72;101275.53;5447802;32;34212;-79
2023/12/15 07:26:38;;;;;;;;;;;;;;;7.29;69.27;101288.78;5470244;32;34697;-79
2023/12/15 07:29:40;;;;;;;;;;;;;;;7.07;69.05;101294.22;5473334;32;34797;-77
2023/12/15 07:32:42;;;;;;;;;;;;;;;6.89;68.86;101310.09;5473724;32;34507;-79
2023/12/15 07:35:45;;;;;;;;;;;;;;;7.04;69.39;101307.31;5455739;32;35559;-78
2023/12/15 07:38:47;;;;;;;;;;;;;;;7.54;67.32;101321.59;5470728;32;35019;-78
2023/12/15 07:41:49;;;;;;;;;;;;;;;7.18;68.34;101327.22;5472056;32;34463;-80
2023/12/15 07:44:51;;;;;;;;;;;;;;;7.59;67.85;101343.31;5475336;32;35539;-79
2023/12/15 07:47:57;;;;;;;;;;;;;;;7.52;67.37;101339.06;5471652;32;35605;-77
2023/12/15 07:51:00;;;;;;;;;;;;;;;7.52;67.91;101340.81;5454881;32;35606;-80
2023/12/15 07:54:02;;;;;;;;;;;;;;;7.71;66.19;101344.94;5476552;32;34330;-79
2023/12/15 07:57:04;;;;;;;;;;;;;;;7.71;66.89;101357.16;5474327;32;35490;-79
2023/12/15 08:00:10;;;;;;;;;;;;;;;8.15;65.70;101357.47;5477809;32;34557;-78
2023/12/15 08:03:12;;;;;;;;;;;;;;;7.77;66.66;101370.16;5473277;32;35427;-77
2023/12/15 08:06:14;;;;;;;;;;;;;;;7.65;65.86;101381.63;5448441;32;34544;-79
2023/12/15 08:09:17;;;;;;;;;;;;;;;7.71;65.45;101391.19;5459311;32;34151;-78
2023/12/15 08:12:19;;;;;;;;;;;;;;;7.67;65.85;101394.72;5474535;32;34121;-77
2023/12/15 08:15:21;;;;;;;;;;;;;;;8.08;65.24;101402.06;5461898;32;35482;-78
2023/12/15 08:18:23;;;;;;;;;;;;;;;7.83;64.75;101405.00;5476382;32;35294;-78
2023/12/15 08:21:25;;;;;;;;;;;;;;;7.96;64.84;101410.06;5477594;32;35445;-78
2023/12/15 08:24:27;;;;;;;;;;;;;;;8.03;64.49;101414.34;5476714;32;33090;-79
2023/12/15 08:27:29;;;;;;;;;;;;;;;8.51;63.73;101417.25;5450111;32;34881;-79
2023/12/15 08:30:32;;;;;;;;;;;;;;;7.65;65.99;101428.75;5478628;32;34568;-78
2023/12/15 08:33:34;;;;;;;;;;;;;;;7.46;65.75;101430.66;5475982;32;34267;-77
2023/12/15 08:36:36;;;;;;;;;;;;;;;7.78;66.36;101439.94;5464527;32;34493;-79
2023/12/15 08:39:38;;;;;;;;;;;;;;;7.81;65.83;101443.41;5449220;32;33689;-78
2023/12/15 08:42:40;;;;;;;;;;;;;;;8.06;65.36;101451.84;5479086;32;34600;-79
2023/12/15 08:45:42;;;;;;;;;;;;;;;7.80;66.66;101457.37;5450094;32;34568;-77
2023/12/15 08:48:44;;;;;;;;;;;;;;;8.25;64.43;101462.09;5461981;32;34956;-78
2023/12/15 08:51:46;;;;;;;;;;;;;;;8.32;64.08;101455.91;5478885;32;35265;-78
2023/12/15 08:54:48;;;;;;;;;;;;;;;8.70;62.79;101459.81;5463858;32;34733;-78
2023/12/15 08:57:51;;;;;;;;;;;;;;;8.48;62.78;101470.56;5480217;32;35546;-78
2023/12/15 09:00:53;;;;;;;;;;;;;;;9.10;61.41;101467.91;5474362;32;34115;-77
2023/12/15 09:03:55;;;;;;;;;;;;;;;8.63;61.79;101470.38;5480377;32;34933;-79
2023/12/15 09:06:57;;;;;;;;;;;;;;;8.91;61.82;101481.31;5476495;32;34082;-78
2023/12/15 09:09:59;;;;;;;;;;;;;;;8.20;64.41;101495.34;5478387;32;34563;-78
2023/12/15 09:13:04;;;;;;;;;;;;;;;8.30;63.50;101503.03;5462347;32;34607;-77
2023/12/15 09:16:06;;;;;;;;;;;;;;;8.38;64.08;101505.63;5461823;32;36760;-77
2023/12/15 09:19:08;;;;;;;;;;;;;;;7.95;64.42;101508.69;5464889;32;34580;-77
2023/12/15 09:22:11;;;;;;;;;;;;;;;8.44;64.11;101510.81;5462114;32;34918;-78
2023/12/15 09:25:13;;;;;;;;;;;;;;;9.01;62.04;101503.00;5467139;32;34738;-78
2023/12/15 09:28:15;;;;;;;;;;;;;;;8.26;63.84;101505.75;5477274;32;34494;-78
2023/12/15 09:31:17;;;;;;;;;;;;;;;8.20;63.80;101521.53;5450922;32;36019;-77
2023/12/15 09:34:20;;;;;;;;;;;;;;;8.51;63.10;101530.78;5480502;32;34936;-77
2023/12/15 09:37:22;;;;;;;;;;;;;;;8.17;64.36;101537.25;5469021;32;34417;-78
2023/12/15 09:40:24;;;;;;;;;;;;;;;9.15;61.27;101532.53;5467330;32;34022;-79
2023/12/15 09:43:26;;;;;;;;;;;;;;;9.15;60.86;101537.78;5465048;32;35624;-78
2023/12/15 09:46:29;;;;;;;;;;;;;;;9.83;58.51;101545.41;5464107;32;35003;-80
2023/12/15 09:49:31;;;;;;;;;;;;;;;9.10;61.03;101547.47;5463419;32;34771;-79
2023/12/15 09:52:33;;;;;;;;;;;;;;;9.59;59.60;101548.44;5461435;32;35455;-78
2023/12/15 09:55:36;;;;;;;;;;;;;;;9.66;58.58;101544.81;5466219;32;35189;-77
2023/12/15 09:58:38;;;;;;;;;;;;;;;9.32;60.61;101552.37;5479673;32;35108;-79
2023/12/15 10:01:40;;;;;;;;;;;;;;;8.92;62.30;101563.44;5482397;32;35305;-79
2023/12/15 10:04:42;;;;;;;;;;;;;;;8.97;61.45;101571.25;5475148;32;34484;-78
2023/12/15 10:07:44;;;;;;;;;;;;;;;8.90;61.25;101583.59;5478153;32;34409;-79
2023/12/15 10:10:46;;;;;;;;;;;;;;;8.59;63.33;101583.09;5458789;32;34511;-78
2023/12/15 10:13:49;;;;;;;;;;;;;;;9.10;61.85;101576.31;5461816;32;34625;-77
2023/12/15 10:16:51;;;;;;;;;;;;;;;9.84;59.56;101564.66;5465477;32;35210;-78
2023/12/15 10:20:09;;;;;;;;;;;;;;;8.78;62.37;101581.12;5447546;32;929966;-78
2023/12/15 10:23:12;;;;;;;;;;;;;;;9.62;60.24;101579.91;5466315;32;34904;-79
2023/12/15 10:26:14;;;;;;;;;;;;;;;7.99;63.20;101596.81;5477171;32;33587;-78
2023/12/15 10:29:18;;;;;;;;;;;;;;;8.48;62.97;101600.69;5463352;32;34152;-78
2023/12/15 10:32:20;;;;;;;;;;;;;;;9.08;60.50;101603.44;5480339;32;34267;-78
2023/12/15 10:35:22;;;;;;;;;;;;;;;9.03;61.28;101603.53;5477564;32;34786;-79
2023/12/15 10:38:25;;;;;;;;;;;;;;;8.87;61.44;101612.47;5479995;32;34529;-78
2023/12/15 10:41:30;;;;;;;;;;;;;;;8.31;62.87;101609.59;5462749;32;33209;-79
2023/12/15 10:44:33;;;;;;;;;;;;;;;8.53;62.52;101615.47;5464430;32;34846;-77
2023/12/15 10:47:35;;;;;;;;;;;;;;;8.73;60.90;101614.38;5462161;32;32747;-78
2023/12/15 10:50:37;;;;;;;;;;;;;;;8.81;60.86;101620.41;5474683;32;34424;-78
2023/12/15 10:53:40;;;;;;;;;;;;;;;8.23;61.43;101613.16;5461471;32;35034;-80
2023/12/15 10:56:42;;;;;;;;;;;;;;;7.93;63.18;101623.03;5458466;32;34965;-78
2023/12/15 10:59:45;;;;;;;;;;;;;;;8.15;63.23;101628.94;5475268;32;34609;-78
2023/12/15 11:02:47;;;;;;;;;;;;;;;8.87;61.22;101636.91;5460902;32;34000;-79
2023/12/15 11:05:49;;;;;;;;;;;;;;;9.46;59.25;101632.63;5476975;32;34621;-77
2023/12/15 11:08:51;;;;;;;;;;;;;;;8.49;61.47;101634.72;5472755;32;34195;-78
2023/12/15 11:12:13;;;;;;;;;;;;;;;9.03;60.60;101642.00;5460841;32;35042;-77
2023/12/15 11:15:18;;;;;;;;;;;;;;;8.86;61.22;101640.44;5477537;32;35389;-78
2023/12/15 11:18:20;;;;;;;;;;;;;;;8.84;60.16;101642.22;5476941;32;35126;-79
2023/12/15 11:21:23;;;;;;;;;;;;;;;9.60;58.10;101637.69;5477324;32;34723;-79
2023/12/15 11:24:25;;;;;;;;;;;;;;;9.26;59.83;101641.66;5471298;32;34832;-80
2023/12/15 11:27:27;;;;;;;;;;;;;;;9.66;58.04;101639.31;5480007;32;35038;-79
2023/12/15 11:30:30;;;;;;;;;;;;;;;8.85;59.88;101650.94;5469697;32;34757;-79
2023/12/15 11:33:39;;;;;;;;;;;;;;;8.63;61.14;101653.81;5447547;32;34256;-78
2023/12/15 11:36:45;;;;;;;;;;;;;;;9.47;59.65;101647.50;5472555;32;34374;-78
2023/12/15 11:39:47;;;;;;;;;;;;;;;9.26;59.07;101654.78;5473210;32;34473;-78
2023/12/15 11:42:51;;;;;;;;;;;;;;;9.34;60.06;101653.81;5477886;32;35113;-79
2023/12/15 11:45:53;;;;;;;;;;;;;;;9.32;59.52;101659.94;5475754;32;34921;-78
2023/12/15 11:48:58;;;;;;;;;;;;;;;9.27;60.31;101662.62;5458765;32;36321;-78
2023/12/15 11:52:02;;;;;;;;;;;;;;;9.22;59.45;101664.47;5461678;32;35479;-78
2023/12/15 11:55:04;;;;;;;;;;;;;;;9.52;59.07;101676.28;5462821;32;34364;-78
2023/12/15 11:58:07;;;;;;;;;;;;;;;8.88;60.52;101666.63;5466318;32;35420;-77
2023/12/15 12:01:09;;;;;;;;;;;;;;;8.87;59.36;101668.38;5448250;32;35322;-79
2023/12/15 12:04:18;;;;;;;;;;;;;;;8.45;61.92;101661.88;5479839;32;34171;-78
2023/12/15 12:07:22;;;;;;;;;;;;;;;9.75;58.00;101660.22;5463172;32;35479;-80
2023/12/15 12:10:30;;;;;;;;;;;;;;;8.78;60.57;101672.88;5475349;32;35678;-78
2023/12/15 12:13:34;;;;;;;;;;;;;;;9.22;58.67;101673.22;5466637;32;34817;-77
2023/12/15 12:16:37;;;;;;;;;;;;;;;9.12;58.97;101674.19;5462968;32;34358;-79
2023/12/15 12:19:40;;;;;;;;;;;;;;;8.29;61.73;101674.19;5478021;32;33763;-80
2023/12/15 12:22:43;;;;;;;;;;;;;;;9.18;58.78;101673.25;5473383;32;34913;-79
2023/12/15 12:25:47;;;;;;;;;;;;;;;9.07;60.22;101676.00;5465485;32;34890;-78
2023/12/15 12:28:50;;;;;;;;;;;;;;;8.62;59.53;101677.41;5449900;32;35504;-79
2023/12/15 12:31:53;;;;;;;;;;;;;;;9.13;59.25;101691.66;5477365;32;36312;-78
2023/12/15 12:34:57;;;;;;;;;;;;;;;9.33;57.49;101687.91;5474493;32;35681;-80
2023/12/15 12:37:59;;;;;;;;;;;;;;;9.30;56.82;101693.22;5460868;32;34169;-79
2023/12/15 12:41:05;;;;;;;;;;;;;;;9.89;55.99;101700.25;5474009;32;35423;-78
2023/12/15 12:44:07;;;;;;;;;;;;;;;9.73;56.75;101704.87;5471518;32;34122;-80
2023/12/15 12:47:09;;;;;;;;;;;;;;;8.93;58.48;101723.38;5472449;32;35059;-78
2023/12/15 12:50:12;;;;;;;;;;;;;;;8.83;58.60;101723.50;5468977;32;32876;-80
2023/12/15 12:53:14;;;;;;;;;;;;;;;9.66;57.22;101724.22;5455796;32;34832;-78
2023/12/15 12:56:17;;;;;;;;;;;;;;;10.03;55.24;101708.75;5458634;32;34251;-78
2023/12/15 12:59:20;;;;;;;;;;;;;;;9.94;55.42;101713.31;5470081;32;35039;-77
2023/12/15 13:02:23;;;;;;;;;;;;;;;10.46;52.98;101718.59;5474371;32;36217;-79
2023/12/15 13:05:25;;;;;;;;;;;;;;;9.91;54.16;101727.34;5454988;32;34249;-79
2023/12/15 13:08:27;;;;;;;;;;;;;;;9.94;54.18;101732.56;5471453;32;33543;-78
2023/12/15 13:11:30;;;;;;;;;;;;;;;10.50;53.13;101730.81;5459835;32;35497;-78
2023/12/15 13:14:32;;;;;;;;;;;;;;;9.62;53.35;101750.53;5466923;32;35018;-78
2023/12/15 13:17:34;;;;;;;;;;;;;;;10.03;51.89;101755.19;5448287;32;34401;-78
2023/12/15 13:20:37;;;;;;;;;;;;;;;9.75;52.65;101759.97;5468121;32;34439;-78
2023/12/15 13:23:39;;;;;;;;;;;;;;;9.94;52.10;101760.59;5473321;32;34403;-80
2023/12/15 13:26:42;;;;;;;;;;;;;;;10.15;51.98;101770.75;5468843;32;35311;-79
2023/12/15 13:29:44;;;;;;;;;;;;;;;10.18;51.93;101760.22;5462818;32;33727;-79
2023/12/15 13:32:47;;;;;;;;;;;;;;;9.07;53.86;101769.56;5474396;32;34690;-80
2023/12/15 13:35:51;;;;;;;;;;;;;;;9.27;53.88;101777.19;5454583;32;34788;-79
2023/12/15 13:39:08;;;;;;;;;;;;;;;9.48;52.68;101787.47;5459517;32;34688;-79
2023/12/15 13:42:12;;;;;;;;;;;;;;;9.64;52.58;101791.59;5467325;32;34385;-78
2023/12/15 13:45:14;;;;;;;;;;;;;;;9.40;52.88;101795.44;5470171;32;35939;-79
2023/12/15 13:48:16;;;;;;;;;;;;;;;9.54;53.08;101802.28;5467482;32;35070;-79
2023/12/15 13:51:18;;;;;;;;;;;;;;;10.23;50.52;101808.31;5466380;32;34946;-79
2023/12/15 13:54:20;;;;;;;;;;;;;;;9.34;51.78;101810.34;5454915;32;34642;-78
2023/12/15 13:57:22;;;;;;;;;;;;;;;9.01;53.41;101820.31;5468875;32;34752;-78
2023/12/15 14:00:24;;;;;;;;;;;;;;;9.61;51.42;101824.94;5457234;32;34875;-78
2023/12/15 14:03:27;;;;;;;;;;;;;;;8.48;54.00;101836.50;5468974;32;34318;-78
2023/12/15 14:06:29;;;;;;;;;;;;;;;7.63;55.78;101843.06;5469140;32;34663;-79
2023/12/15 14:09:32;;;;;;;;;;;;;;;7.99;55.39;101842.03;5466572;32;36564;-80
2023/12/15 14:12:34;;;;;;;;;;;;;;;7.88;54.96;101853.44;5452323;32;35438;-78
2023/12/15 14:15:36;;;;;;;;;;;;;;;9.10;51.74;101845.59;5468762;32;34874;-77
2023/12/15 14:18:38;;;;;;;;;;;;;;;8.34;52.86;101853.16;5467465;32;34763;-79
2023/12/15 14:21:41;;;;;;;;;;;;;;;7.81;54.74;101859.56;5469689;32;34836;-79
2023/12/15 14:24:46;;;;;;;;;;;;;;;8.14;53.96;101858.53;5466591;32;35371;-81
2023/12/15 14:27:48;;;;;;;;;;;;;;;8.24;53.03;101859.31;5456234;32;34883;-79
2023/12/15 14:30:51;;;;;;;;;;;;;;;7.62;54.50;101867.50;5451782;32;36348;-78
2023/12/15 14:33:53;;;;;;;;;;;;;;;7.54;54.94;101880.63;5451152;32;34396;-79
2023/12/15 14:36:55;;;;;;;;;;;;;;;7.15;55.32;101869.34;5470318;32;34782;-78
2023/12/15 14:39:58;;;;;;;;;;;;;;;7.46;54.62;101879.75;5438477;32;34272;-78
2023/12/15 14:43:00;;;;;;;;;;;;;;;7.58;54.11;101885.81;5468789;32;37099;-79
2023/12/15 14:46:04;;;;;;;;;;;;;;;7.98;52.77;101890.87;5465453;32;34714;-79
2023/12/15 14:49:06;;;;;;;;;;;;;;;7.26;53.68;101906.81;5450303;32;34821;-79
2023/12/15 14:52:08;;;;;;;;;;;;;;;7.33;53.61;101905.06;5467626;32;34516;-78
2023/12/15 14:55:10;;;;;;;;;;;;;;;6.97;54.05;101911.19;5449559;32;35254;-79
2023/12/15 14:58:12;;;;;;;;;;;;;;;7.20;53.45;101916.41;5464956;32;34477;-77
2023/12/15 15:01:15;;;;;;;;;;;;;;;6.81;54.28;101927.72;5465575;32;34320;-78
2023/12/15 15:04:23;;;;;;;;;;;;;;;6.69;54.47;101932.06;5455494;32;35016;-79
2023/12/15 15:07:25;;;;;;;;;;;;;;;6.83;53.26;101932.09;5466126;32;32492;-78
2023/12/15 15:10:27;;;;;;;;;;;;;;;6.71;53.04;101935.56;5464039;32;34869;-79
2023/12/15 15:13:29;;;;;;;;;;;;;;;6.58;53.22;101946.00;5468390;32;34807;-80
2023/12/15 15:16:31;;;;;;;;;;;;;;;5.89;54.18;101951.81;5447817;32;34935;-79
2023/12/15 15:19:33;;;;;;;;;;;;;;;6.05;53.84;101954.50;5469517;32;35241;-79
2023/12/15 15:22:35;;;;;;;;;;;;;;;6.00;54.18;101964.94;5466207;32;34860;-78
2023/12/15 15:25:38;;;;;;;;;;;;;;;6.32;52.59;101967.69;5442584;32;35025;-78
2023/12/15 15:28:40;;;;;;;;;;;;;;;6.01;53.83;101971.91;5473889;32;34289;-78
2023/12/15 15:31:43;;;;;;;;;;;;;;;6.26;52.61;101970.28;5471740;32;35589;-78
2023/12/15 15:34:45;;;;;;;;;;;;;;;6.08;53.24;101980.62;5447571;32;34758;-77
2023/12/15 15:38:03;;;;;;;;;;;;;;;5.88;53.86;101983.97;5472302;32;34669;-77
2023/12/15 15:41:06;;;;;;;;;;;;;;;6.41;53.17;101986.00;5476378;32;34514;-79
2023/12/15 15:44:08;;;;;;;;;;;;;;;5.75;53.96;101982.16;5470687;32;34824;-78
2023/12/15 15:47:22;;;;;;;;;;;;;;;6.16;53.12;101986.75;5472108;32;34150;-80
2023/12/15 15:50:31;;;;;;;;;;;;;;;5.67;53.85;101991.69;5445761;32;33468;-78